Wednesday, December 12, 2018, 11:33 PM EST
Back to Local

KORH, Worcester Regional Airport

Location: Worcester, MA, United States Lat: 42.267
Local Time: 11:33 PM EST ( 4:33 GMT) Lon: -71.867
Time Zone: US/Eastern Elev: 1010 ft

Show me the last for .
Show Decoded

2018-12-12 22:54 METAR KORH 130354Z 01005KT 10SM CLR M07/M13 A3026 RMK AO2 SLP261 T10721133 =
2018-12-12 21:54 METAR KORH 130254Z 34004KT 10SM CLR M07/M13 A3025 RMK AO2 SLP259 T10721133 53026
                 =
2018-12-12 20:54 METAR KORH 130154Z 33005KT 10SM CLR M06/M13 A3022 RMK AO2 SLP250 T10611128 =
2018-12-12 19:54 METAR KORH 130054Z 32008KT 10SM CLR M06/M12 A3019 RMK AO2 SLP240 T10561122 =
2018-12-12 18:54 METAR KORH 122354Z 34008KT 10SM CLR M04/M12 A3017 RMK AO2 SLP231 T10441117 10000
                 21044 51030 =
2018-12-12 17:54 METAR KORH 122254Z 32008KT 10SM CLR M04/M12 A3015 RMK AO2 SLP227 T10391117 =
2018-12-12 16:54 METAR KORH 122154Z 31008KT 10SM CLR M03/M12 A3012 RMK AO2 SLP215 T10281117 =
2018-12-12 15:54 METAR KORH 122054Z 32010G18KT 10SM CLR M02/M11 A3007 RMK AO2 SLP200 T10221111
                 53021 =
2018-12-12 14:54 METAR KORH 121954Z 31015G19KT 10SM CLR M01/M10 A3003 RMK AO2 SLP185 T10061100 =
2018-12-12 13:54 METAR KORH 121854Z 32016G22KT 10SM CLR M01/M10 A3002 RMK AO2 SLP179 T10061100 =
2018-12-12 12:54 METAR KORH 121754Z 31014G23KT 10SM FEW041 M01/M09 A3001 RMK AO2 PK WND
                 34028/1714 SLP176 T10061094 11006 21050 51008 =
2018-12-12 11:54 METAR KORH 121654Z 33013G19KT 10SM BKN038 M01/M09 A3001 RMK AO2 PK WND
                 31027/1614 SLP175 T10111094 =
2018-12-12 10:54 METAR KORH 121554Z 32013G24KT 10SM FEW033 M01/M09 A3000 RMK AO2 SLP173 T10111089
                 =
2018-12-12 09:54 METAR KORH 121454Z 31014G19KT 10SM CLR M02/M08 A2999 RMK AO2 SLP168 T10171083
                 51019 =
2018-12-12 08:54 METAR KORH 121354Z 30014KT 10SM CLR M03/M08 A2997 RMK AO2 SLP164 T10281078 =
2018-12-12 07:54 METAR KORH 121254Z 30012KT 10SM OVC060 M04/M08 A2995 RMK AO2 SLP156 T10441083 =
2018-12-12 06:54 METAR KORH 121154Z 30013KT 10SM BKN060 M05/M09 A2993 RMK AO2 SLP150 T10501089
                 11033 21056 53021 =
2018-12-12 05:54 METAR KORH 121054Z 30015KT 10SM OVC070 M04/M09 A2990 RMK AO2 SLP139 T10441089 =
2018-12-12 04:54 METAR KORH 120954Z AUTO 31011KT 10SM OVC070 M05/M09 A2988 RMK AO2 SLP133
                 T10501094 =
2018-12-12 03:54 METAR KORH 120854Z AUTO 31009KT 10SM SCT070 BKN120 M05/M10 A2986 RMK AO2 SLP127
                 T10501100 51006 =
2018-12-12 02:54 METAR KORH 120754Z AUTO 31008KT 10SM CLR M05/M09 A2986 RMK AO2 SLP124 T10501094
                 =
2018-12-12 01:54 METAR KORH 120654Z AUTO 30006KT 10SM OVC120 M04/M09 A2985 RMK AO2 SLP123
                 T10441089 =
2018-12-12 00:54 METAR KORH 120554Z 30009KT 10SM FEW032 OVC044 M03/M09 A2984 RMK AO2 SLP119
                 T10331089 11022 21044 56014 =
2018-12-11 23:54 METAR KORH 120454Z 32003KT 10SM OVC033 M03/M09 A2985 RMK AO2 SLP122 T10281089
                 400061100 =

Support USWX by starting your Amazon purchase here.